Time;durP1;ratioP1;P1;durP2;ratioP2;P2;SDS_P1;SDS_P2;PMS_P1;PMS_P2;Temp;Humidity;BMP_temperature;BMP_pressure;BME280_temperature;BME280_humidity;BME280_pressure;Samples;Min_cycle;Max_cycle;Signal;HPM_P1;HPM_P2
2022/07/01 00:01:25;;;;;;;15.85;13.18;;;;;;;14.95;82.19;101292.25;3570080;40;20387;-65
2022/07/01 00:03:51;;;;;;;15.25;13.52;;;;;;;14.91;81.92;101299.72;3572711;40;20060;-65
2022/07/01 00:06:21;;;;;;;14.52;12.98;;;;;;;14.91;82.94;101297.00;3571592;40;20049;-64
2022/07/01 00:08:47;;;;;;;15.10;13.38;;;;;;;14.89;83.07;101288.13;3571318;40;20101;-64
2022/07/01 00:11:14;;;;;;;16.88;13.70;;;;;;;14.90;82.27;101292.56;3571832;40;20057;-64
2022/07/01 00:13:40;;;;;;;14.73;13.05;;;;;;;14.85;82.39;101275.81;3569446;40;20065;-65
2022/07/01 00:16:06;;;;;;;18.77;14.05;;;;;;;14.84;82.34;101284.88;3572280;40;20053;-65
2022/07/01 00:18:31;;;;;;;15.05;13.32;;;;;;;14.82;82.93;101282.31;3573431;40;20391;-64
2022/07/01 00:20:57;;;;;;;15.35;13.57;;;;;;;14.82;82.51;101286.84;3572329;40;20122;-63
2022/07/01 00:23:23;;;;;;;16.85;14.13;;;;;;;14.83;83.05;101277.75;3572424;40;20055;-64
2022/07/01 00:25:48;;;;;;;17.23;14.63;;;;;;;14.82;82.94;101278.72;3572784;40;20172;-64
2022/07/01 00:28:14;;;;;;;15.40;13.43;;;;;;;14.82;82.90;101267.91;3572020;40;20053;-63
2022/07/01 00:30:40;;;;;;;17.67;13.80;;;;;;;14.83;82.15;101266.91;3570876;40;20060;-64
2022/07/01 00:33:06;;;;;;;20.30;14.55;;;;;;;14.74;82.68;101265.72;3573363;40;20395;-64
2022/07/01 00:35:32;;;;;;;17.00;13.63;;;;;;;14.82;82.93;101259.78;3570176;40;20092;-65
2022/07/01 00:37:57;;;;;;;16.15;13.85;;;;;;;14.78;82.48;101242.03;3569704;40;20060;-65
2022/07/01 00:40:24;;;;;;;18.52;14.05;;;;;;;14.77;82.51;101251.13;3572256;40;20053;-64
2022/07/01 00:42:50;;;;;;;15.20;13.48;;;;;;;14.78;82.58;101247.44;3573181;40;20052;-65
2022/07/01 00:45:16;;;;;;;16.10;14.18;;;;;;;14.82;82.71;101251.66;3572918;40;20371;-65
2022/07/01 00:47:44;;;;;;;16.38;14.15;;;;;;;14.82;82.45;101244.41;3570557;40;20069;-64
2022/07/01 00:50:15;;;;;;;18.45;14.43;;;;;;;14.81;83.02;101242.69;3572778;40;20130;-64
2022/07/01 00:52:43;;;;;;;15.90;13.50;;;;;;;14.82;83.12;101248.97;3571956;40;21304;-64
2022/07/01 00:55:14;;;;;;;17.23;14.20;;;;;;;14.82;82.92;101254.38;3570390;40;20053;-64
2022/07/01 00:57:43;;;;;;;18.00;13.18;;;;;;;14.88;83.12;101259.34;3569703;40;20444;-64
2022/07/01 01:00:13;;;;;;;17.55;14.20;;;;;;;14.85;82.30;101264.97;3573174;40;20456;-65
2022/07/01 01:02:39;;;;;;;17.42;13.75;;;;;;;14.84;82.41;101263.22;3569295;40;20055;-65
2022/07/01 01:05:07;;;;;;;17.20;14.85;;;;;;;14.86;82.77;101267.56;3572764;40;20040;-65
2022/07/01 01:07:33;;;;;;;17.30;14.27;;;;;;;14.88;82.62;101274.72;3571397;40;20056;-65
2022/07/01 01:10:01;;;;;;;21.58;14.80;;;;;;;14.88;82.60;101277.44;3573250;40;20056;-65
2022/07/01 01:12:28;;;;;;;17.55;14.90;;;;;;;14.87;83.03;101273.84;3570657;40;20062;-64
2022/07/01 01:14:57;;;;;;;18.55;15.40;;;;;;;14.87;83.23;101284.66;3573852;40;20067;-65
2022/07/01 01:17:24;;;;;;;19.88;15.45;;;;;;;14.77;83.45;101261.94;3573307;40;20061;-65
2022/07/01 01:19:51;;;;;;;20.17;15.15;;;;;;;14.93;82.94;101303.16;3570250;40;20060;-64
2022/07/01 01:22:18;;;;;;;18.05;15.90;;;;;;;14.96;82.40;101305.66;3572147;40;20056;-65
2022/07/01 01:24:47;;;;;;;19.60;14.10;;;;;;;14.94;82.21;101304.03;3571411;40;20400;-65
2022/07/01 01:27:13;;;;;;;18.50;14.88;;;;;;;15.00;82.93;101315.31;3572535;40;20063;-64
2022/07/01 01:29:40;;;;;;;19.52;15.30;;;;;;;15.02;83.10;101310.63;3571459;40;20056;-65
2022/07/01 01:32:07;;;;;;;21.20;15.25;;;;;;;15.02;82.07;101310.63;3572569;40;20057;-65
2022/07/01 01:34:36;;;;;;;21.73;15.70;;;;;;;15.02;82.43;101316.03;3572408;40;20068;-64
2022/07/01 01:37:04;;;;;;;21.23;16.65;;;;;;;15.08;82.96;101304.75;3575252;40;20374;-65
2022/07/01 01:39:30;;;;;;;20.65;17.00;;;;;;;15.09;82.36;101303.78;3568153;40;20049;-63
2022/07/01 01:41:55;;;;;;;24.40;17.42;;;;;;;15.10;82.09;101307.38;3573690;40;20051;-66
2022/07/01 01:44:21;;;;;;;22.10;16.60;;;;;;;15.13;82.72;101295.41;3574113;40;20416;-65
2022/07/01 01:46:47;;;;;;;23.02;16.40;;;;;;;15.15;82.46;101298.91;3572627;40;20052;-65
2022/07/01 01:49:13;;;;;;;22.02;17.48;;;;;;;14.98;82.27;101263.09;3568036;40;20064;-65
2022/07/01 01:51:39;;;;;;;22.58;16.77;;;;;;;14.95;82.11;101265.16;3571894;40;21175;-65
2022/07/01 01:54:06;;;;;;;24.15;17.20;;;;;;;15.14;82.76;101308.00;3569772;40;20048;-65
2022/07/01 01:56:32;;;;;;;27.48;18.15;;;;;;;15.12;82.21;101307.25;3571503;40;20304;-64
2022/07/01 01:58:59;;;;;;;24.65;17.17;;;;;;;15.09;82.26;101301.06;3569491;40;20068;-64
2022/07/01 02:01:25;;;;;;;23.30;17.88;;;;;;;15.08;82.51;101298.47;3572636;40;20056;-65
2022/07/01 02:03:53;;;;;;;24.38;17.40;;;;;;;15.12;82.45;101304.53;3572081;40;20054;-64
2022/07/01 02:06:21;;;;;;;25.85;18.55;;;;;;;15.07;82.64;101308.47;3571025;40;20132;-65
2022/07/01 02:08:48;;;;;;;25.48;18.52;;;;;;;14.92;82.31;101293.31;3569523;40;20057;-65
2022/07/01 02:11:14;;;;;;;26.02;18.25;;;;;;;15.05;82.59;101321.22;3571705;40;20075;-64
2022/07/01 02:13:40;;;;;;;26.95;17.70;;;;;;;15.04;83.00;101324.06;3570227;40;20501;-65
2022/07/01 02:16:06;;;;;;;26.90;18.77;;;;;;;15.05;82.49;101321.22;3572465;40;20049;-65
2022/07/01 02:18:32;;;;;;;26.35;18.63;;;;;;;15.04;82.47;101334.91;3570360;40;20057;-66
2022/07/01 02:20:59;;;;;;;23.90;18.00;;;;;;;15.00;82.67;101333.34;3571216;40;20372;-65
2022/07/01 02:23:25;;;;;;;27.50;18.92;;;;;;;14.96;82.49;101338.13;3571095;40;20146;-65
2022/07/01 02:25:52;;;;;;;22.83;17.35;;;;;;;14.93;82.59;101349.19;3571450;40;20068;-65
2022/07/01 02:28:17;;;;;;;24.15;18.10;;;;;;;14.92;82.90;101350.16;3567909;40;20071;-64
2022/07/01 02:30:43;;;;;;;25.50;17.77;;;;;;;14.95;82.84;101346.38;3571884;40;20064;-64
2022/07/01 02:33:10;;;;;;;23.90;17.38;;;;;;;14.95;82.53;101325.59;3574083;40;20053;-63
2022/07/01 02:35:39;;;;;;;23.38;16.38;;;;;;;14.92;82.62;101308.72;3567733;40;20057;-63
2022/07/01 02:38:07;;;;;;;28.70;18.23;;;;;;;14.90;82.65;101289.84;3569476;40;20063;-64
2022/07/01 02:40:37;;;;;;;25.65;17.38;;;;;;;14.89;82.85;101309.78;3570200;40;20104;-63
2022/07/01 02:43:04;;;;;;;25.85;17.00;;;;;;;14.88;82.42;101318.03;3571579;40;20053;-63
2022/07/01 02:45:30;;;;;;;24.42;16.77;;;;;;;14.88;83.06;101315.31;3568947;40;20061;-63
2022/07/01 02:47:55;;;;;;;24.92;18.15;;;;;;;14.91;82.91;101324.09;3570288;40;20060;-63
2022/07/01 02:50:22;;;;;;;27.60;17.58;;;;;;;14.89;82.81;101339.56;3569675;40;20058;-63
2022/07/01 02:52:47;;;;;;;27.13;18.13;;;;;;;14.86;82.75;101328.94;3571838;40;20112;-63
2022/07/01 02:55:14;;;;;;;23.83;17.40;;;;;;;14.92;82.94;101341.19;3571949;40;20056;-63
2022/07/01 02:57:43;;;;;;;25.77;17.63;;;;;;;14.95;83.15;101339.13;3570251;40;20318;-63
2022/07/01 03:00:13;;;;;;;26.90;18.15;;;;;;;14.96;83.24;101338.13;3569890;40;20073;-63
2022/07/01 03:02:40;;;;;;;24.60;18.35;;;;;;;14.95;82.47;101340.97;3567507;40;20053;-63
2022/07/01 03:05:07;;;;;;;25.42;18.45;;;;;;;14.94;82.92;101331.09;3571703;40;20376;-63
2022/07/01 03:07:34;;;;;;;28.88;20.23;;;;;;;14.89;82.82;101330.59;3568908;40;20372;-62
2022/07/01 03:10:01;;;;;;;31.25;20.40;;;;;;;14.97;82.72;101339.00;3570074;40;20067;-65
2022/07/01 03:12:29;;;;;;;30.02;20.38;;;;;;;14.96;81.94;101343.56;3568341;40;20158;-63
2022/07/01 03:15:03;;;;;;;27.85;19.30;;;;;;;14.96;82.69;101340.84;3570128;40;21654;-63
2022/07/01 03:17:32;;;;;;;27.05;20.02;;;;;;;14.96;82.59;101348.09;3572863;40;20044;-61
2022/07/01 03:20:00;;;;;;;26.85;20.23;;;;;;;14.92;82.71;101339.34;3570058;40;20063;-63
2022/07/01 03:22:30;;;;;;;29.83;20.80;;;;;;;14.94;82.42;101334.69;3566648;40;20076;-63
2022/07/01 03:24:57;;;;;;;31.60;19.80;;;;;;;14.95;82.61;101330.16;3568762;40;20049;-62
2022/07/01 03:27:25;;;;;;;28.88;21.20;;;;;;;14.96;82.49;101339.97;3568603;40;20308;-63
2022/07/01 03:29:51;;;;;;;28.45;21.52;;;;;;;14.96;81.82;101343.56;3570668;40;20058;-63
2022/07/01 03:32:17;;;;;;;30.00;21.63;;;;;;;14.93;81.89;101338.34;3570235;40;20370;-64
2022/07/01 03:34:47;;;;;;;27.15;20.50;;;;;;;14.96;82.05;101354.38;3566725;40;20146;-62
2022/07/01 03:37:15;;;;;;;31.17;21.25;;;;;;;14.92;82.48;101363.72;3569200;40;20060;-63
2022/07/01 03:39:42;;;;;;;31.00;21.27;;;;;;;14.91;82.68;101370.09;3571634;40;20061;-62
2022/07/01 03:42:09;;;;;;;29.90;21.65;;;;;;;14.93;82.89;101373.56;3569012;40;20064;-64
2022/07/01 03:44:35;;;;;;;27.52;21.33;;;;;;;14.91;82.72;101375.53;3567729;40;20296;-63
2022/07/01 03:47:02;;;;;;;30.33;21.80;;;;;;;14.89;82.56;101380.16;3569490;40;20482;-63
2022/07/01 03:49:28;;;;;;;29.25;21.15;;;;;;;14.84;82.12;101387.72;3571797;40;20044;-63
2022/07/01 03:51:54;;;;;;;29.52;21.58;;;;;;;14.81;82.30;101390.66;3564521;40;20049;-64
2022/07/01 03:54:29;;;;;;;27.00;22.52;;;;;;;14.81;82.53;101387.94;3571238;40;20292;-64
2022/07/01 03:57:09;;;;;;;28.95;22.17;;;;;;;14.79;82.17;101396.19;3568987;40;20040;-64
2022/07/01 03:59:40;;;;;;;27.90;21.75;;;;;;;14.82;82.19;101397.81;3569478;40;20079;-64
2022/07/01 04:02:07;;;;;;;31.85;23.52;;;;;;;14.91;82.51;101401.72;3569786;40;20057;-65
2022/07/01 04:04:35;;;;;;;33.70;22.95;;;;;;;14.90;81.98;101414.38;3572386;40;20088;-66
2022/07/01 04:07:05;;;;;;;29.73;23.80;;;;;;;14.91;82.31;101407.16;3571329;40;20081;-64
2022/07/01 04:09:31;;;;;;;34.67;27.10;;;;;;;14.87;82.13;101414.59;3570549;40;20056;-64
2022/07/01 04:11:58;;;;;;;34.65;26.95;;;;;;;14.68;81.73;101376.25;3569174;40;20071;-64
2022/07/01 04:14:24;;;;;;;36.50;27.77;;;;;;;14.86;82.44;101407.44;3572286;40;20056;-64
2022/07/01 04:16:50;;;;;;;31.00;25.23;;;;;;;14.82;81.83;101404.09;3570556;40;20065;-64
2022/07/01 04:19:17;;;;;;;30.00;24.70;;;;;;;14.87;82.20;101406.47;3573253;40;20138;-64
2022/07/01 04:24:28;;;;;;;29.88;23.05;;;;;;;14.88;82.33;101405.50;3573830;40;20067;-64
2022/07/01 04:26:54;;;;;;;27.92;21.98;;;;;;;14.86;81.77;101402.91;3571809;40;20048;-64
2022/07/01 04:29:20;;;;;;;24.15;19.85;;;;;;;14.87;81.55;101403.75;3573946;40;20360;-64
2022/07/01 04:31:47;;;;;;;26.77;19.38;;;;;;;14.84;81.73;101399.47;3569792;40;20611;-64
2022/07/01 04:34:13;;;;;;;23.05;17.80;;;;;;;14.86;81.68;101404.75;3571859;40;20051;-64
2022/07/01 04:36:39;;;;;;;22.60;17.67;;;;;;;14.92;81.81;101407.03;3571700;40;20049;-64
2022/07/01 04:39:06;;;;;;;24.00;17.02;;;;;;;14.91;81.34;101409.84;3571055;40;20057;-64
2022/07/01 04:44:18;;;;;;;21.30;16.52;;;;;;;14.84;81.17;101412.09;3573078;40;20059;-62
2022/07/01 04:46:45;;;;;;;23.05;16.50;;;;;;;14.81;81.41;101415.91;3572239;40;20052;-62
2022/07/01 04:49:10;;;;;;;22.52;16.67;;;;;;;14.79;81.90;101417.84;3571557;40;20052;-63
2022/07/01 04:51:36;;;;;;;23.55;16.75;;;;;;;14.85;82.35;101412.00;3570787;40;20053;-63
2022/07/01 04:54:05;;;;;;;21.30;16.40;;;;;;;14.88;81.71;101416.34;3570203;40;20167;-63
2022/07/01 04:56:33;;;;;;;23.17;16.17;;;;;;;14.85;81.59;101416.56;3571616;40;20040;-65
2022/07/01 04:59:00;;;;;;;20.80;14.70;;;;;;;14.89;81.83;101415.34;3569654;40;20456;-64
2022/07/01 05:01:26;;;;;;;22.35;16.33;;;;;;;14.84;82.09;101387.72;3569192;40;20125;-64
2022/07/01 05:03:52;;;;;;;18.77;14.75;;;;;;;14.93;81.72;101408.75;3570212;40;20401;-65
2022/07/01 05:06:17;;;;;;;17.60;14.43;;;;;;;14.92;80.73;101423.25;3566926;40;20057;-64
2022/07/01 05:08:43;;;;;;;18.80;14.13;;;;;;;14.81;80.68;101398.78;3567823;40;20057;-64
2022/07/01 05:11:10;;;;;;;17.80;14.02;;;;;;;14.84;80.96;101412.09;3569615;40;20130;-64
2022/07/01 05:13:36;;;;;;;19.63;14.30;;;;;;;14.85;81.19;101420.13;3572034;40;20052;-64
2022/07/01 05:16:03;;;;;;;18.42;13.18;;;;;;;14.99;80.99;101419.13;3570035;40;20127;-64
2022/07/01 05:23:59;;;;;;;16.00;11.93;;;;;;;14.89;80.83;101399.13;3567562;40;20732;-64
2022/07/01 05:26:25;;;;;;;14.63;12.05;;;;;;;15.08;80.83;101423.91;3568232;40;20049;-64
2022/07/01 05:28:53;;;;;;;18.55;12.65;;;;;;;15.16;81.28;101433.31;3570835;40;20056;-66
2022/07/01 05:31:19;;;;;;;13.90;11.73;;;;;;;15.11;80.67;101427.38;3572435;40;20048;-66
2022/07/01 05:33:45;;;;;;;16.15;11.68;;;;;;;15.14;79.81;101416.31;3568753;40;20068;-64
2022/07/01 05:36:11;;;;;;;16.83;11.90;;;;;;;15.18;80.61;101424.09;3567406;40;20053;-64
2022/07/01 05:38:37;;;;;;;19.35;11.65;;;;;;;15.22;79.54;101425.66;3571124;40;20075;-64
2022/07/01 05:41:03;;;;;;;16.35;11.77;;;;;;;15.15;79.85;101418.06;3567738;40;20057;-63
2022/07/01 05:43:30;;;;;;;16.33;12.32;;;;;;;15.17;79.63;101433.22;3571542;40;20125;-63
2022/07/01 05:45:56;;;;;;;16.67;12.20;;;;;;;15.12;79.50;101426.41;3572485;40;20061;-64
2022/07/01 05:48:22;;;;;;;16.63;11.98;;;;;;;15.07;79.04;101433.00;3572376;40;20091;-67
2022/07/01 05:50:48;;;;;;;15.68;12.02;;;;;;;15.05;79.84;101429.53;3571100;40;20057;-66
2022/07/01 05:53:14;;;;;;;17.55;12.60;;;;;;;15.09;80.15;101425.63;3571191;40;20060;-66
2022/07/01 05:55:40;;;;;;;19.08;13.70;;;;;;;15.12;79.51;101435.38;3571580;40;20079;-66
2022/07/01 05:58:09;;;;;;;14.55;12.88;;;;;;;15.15;80.22;101428.88;3570470;40;20077;-66
2022/07/01 06:00:35;;;;;;;16.42;13.43;;;;;;;15.29;80.35;101436.91;3569871;40;20113;-66
2022/07/01 06:03:01;;;;;;;15.73;12.52;;;;;;;15.42;79.88;101432.31;3559464;40;20061;-62
2022/07/01 06:05:27;;;;;;;17.88;13.02;;;;;;;15.54;80.19;101434.16;3569954;40;20121;-62
2022/07/01 06:07:52;;;;;;;16.30;12.15;;;;;;;15.60;78.94;101430.09;3567681;40;20060;-62
2022/07/01 06:10:18;;;;;;;14.23;11.82;;;;;;;15.61;77.65;101433.69;3571425;40;20060;-62
2022/07/01 06:12:44;;;;;;;16.98;11.60;;;;;;;15.60;77.93;101431.94;3569563;40;20057;-61
2022/07/01 06:15:12;;;;;;;15.60;12.05;;;;;;;15.44;77.70;101405.97;3571929;40;20388;-62
2022/07/01 06:17:40;;;;;;;16.20;11.85;;;;;;;15.67;77.06;101447.69;3570838;40;20399;-62
2022/07/01 06:20:08;;;;;;;16.40;11.52;;;;;;;15.69;77.44;101442.16;3569148;40;20067;-62
2022/07/01 06:22:34;;;;;;;13.88;10.60;;;;;;;15.77;76.88;101437.03;3570371;40;20099;-62
2022/07/01 06:25:01;;;;;;;12.90;10.00;;;;;;;15.79;76.59;101435.06;3568860;40;20073;-64
2022/07/01 06:27:27;;;;;;;14.15;10.25;;;;;;;15.75;77.52;101436.28;3567936;40;20281;-63
2022/07/01 06:29:52;;;;;;;11.73;9.57;;;;;;;15.78;75.89;101441.47;3567911;40;20121;-62
2022/07/01 06:32:19;;;;;;;13.93;9.05;;;;;;;15.84;75.94;101437.44;3569458;40;20303;-62
2022/07/01 06:34:45;;;;;;;12.73;9.95;;;;;;;15.88;75.31;101426.25;3570152;40;20060;-62
2022/07/01 06:37:11;;;;;;;12.40;8.98;;;;;;;15.98;76.24;101424.59;3572191;40;20052;-62
2022/07/01 06:39:37;;;;;;;13.48;9.05;;;;;;;15.97;74.54;101411.13;3571778;40;20133;-62
2022/07/01 06:42:03;;;;;;;10.35;7.60;;;;;;;16.19;74.60;101435.66;3565621;40;20072;-62
2022/07/01 06:44:28;;;;;;;14.52;8.52;;;;;;;16.26;73.38;101438.78;3568876;40;20063;-62
2022/07/01 06:46:54;;;;;;;8.43;7.38;;;;;;;16.38;72.44;101436.97;3568768;40;20048;-64
2022/07/01 06:49:20;;;;;;;9.65;6.82;;;;;;;16.56;72.33;101426.56;3568681;40;20414;-65
2022/07/01 06:51:46;;;;;;;12.90;8.52;;;;;;;16.75;71.79;101426.00;3565464;40;20061;-65
2022/07/01 06:54:11;;;;;;;12.77;6.88;;;;;;;16.87;72.14;101425.03;3565291;40;20537;-65
2022/07/01 06:56:37;;;;;;;11.23;6.85;;;;;;;16.48;70.39;101330.28;3565295;40;20049;-65
2022/07/01 06:59:03;;;;;;;10.05;6.20;;;;;;;17.20;69.49;101435.09;3570192;40;20061;-64
2022/07/01 07:01:28;;;;;;;12.57;7.20;;;;;;;17.24;67.94;101436.56;3573549;40;20059;-64
2022/07/01 07:03:55;;;;;;;13.75;6.18;;;;;;;17.30;68.64;101435.22;3569604;40;20052;-64
2022/07/01 07:06:21;;;;;;;7.90;5.72;;;;;;;17.27;67.96;101436.31;3568610;40;20064;-64
2022/07/01 07:08:47;;;;;;;9.23;5.63;;;;;;;17.31;67.79;101435.06;3567449;40;20060;-64
2022/07/01 07:11:14;;;;;;;10.70;5.05;;;;;;;17.50;66.51;101447.19;3566687;40;20105;-64
2022/07/01 07:13:42;;;;;;;9.02;4.45;;;;;;;17.67;67.06;101463.00;3568796;40;20375;-64
2022/07/01 07:16:07;;;;;;;8.45;4.70;;;;;;;17.79;67.32;101467.47;3571182;40;20060;-64
2022/07/01 07:18:34;;;;;;;10.05;4.40;;;;;;;17.82;66.89;101475.38;3571890;40;20061;-64
2022/07/01 07:21:00;;;;;;;8.18;3.72;;;;;;;17.83;66.19;101468.94;3559247;40;20072;-64
2022/07/01 07:23:25;;;;;;;4.93;3.30;;;;;;;17.92;65.03;101472.75;3570758;40;20045;-64
2022/07/01 07:25:51;;;;;;;7.32;3.35;;;;;;;17.98;65.07;101457.78;3568259;40;20063;-65
2022/07/01 07:28:17;;;;;;;4.47;2.40;;;;;;;18.07;64.21;101465.16;3570033;40;20057;-65
2022/07/01 07:30:42;;;;;;;5.40;2.13;;;;;;;18.19;62.22;101463.28;3570382;40;20045;-65
2022/07/01 07:33:08;;;;;;;6.25;2.63;;;;;;;18.24;61.35;101452.88;3566094;40;20384;-65
2022/07/01 07:35:33;;;;;;;5.25;2.30;;;;;;;18.18;61.72;101459.72;3570016;40;20049;-65
2022/07/01 07:37:59;;;;;;;6.18;2.15;;;;;;;18.12;62.66;101432.16;3566888;40;20059;-65
2022/07/01 07:40:25;;;;;;;7.78;2.85;;;;;;;18.33;62.17;101461.16;3570204;40;20057;-65
2022/07/01 07:42:51;;;;;;;4.07;2.28;;;;;;;18.34;62.02;101464.72;3566397;40;20476;-65
2022/07/01 07:45:17;;;;;;;4.80;2.17;;;;;;;18.41;62.23;101465.06;3566684;40;20061;-64
2022/07/01 07:47:46;;;;;;;4.70;2.22;;;;;;;18.55;60.94;101465.63;3569235;40;20101;-65
2022/07/01 07:50:13;;;;;;;4.00;1.98;;;;;;;18.77;61.64;101467.41;3570162;40;20060;-65
2022/07/01 07:52:39;;;;;;;4.63;1.48;;;;;;;19.03;59.35;101467.00;3569703;40;20045;-65
2022/07/01 07:55:08;;;;;;;5.95;1.98;;;;;;;19.27;58.04;101479.47;3567133;40;20055;-65
2022/07/01 07:57:36;;;;;;;4.10;1.75;;;;;;;19.40;56.85;101474.63;3570562;40;20272;-65
2022/07/01 08:00:08;;;;;;;3.97;1.65;;;;;;;19.66;55.17;101480.53;3566566;40;20146;-64
2022/07/01 08:02:34;;;;;;;3.50;1.27;;;;;;;19.76;52.60;101478.72;3563159;40;20055;-65
2022/07/01 08:05:00;;;;;;;3.42;1.27;;;;;;;19.78;50.91;101484.88;3566590;40;20428;-64
2022/07/01 08:07:26;;;;;;;4.03;1.27;;;;;;;19.76;51.29;101486.91;3567897;40;20068;-64
2022/07/01 08:09:51;;;;;;;3.17;1.52;;;;;;;19.94;51.44;101485.19;3569339;40;20123;-64
2022/07/01 08:12:18;;;;;;;2.67;1.20;;;;;;;20.14;51.92;101488.84;3564601;40;20063;-64
2022/07/01 08:14:44;;;;;;;4.88;1.52;;;;;;;20.31;51.55;101494.63;3569637;40;20131;-64
2022/07/01 08:17:09;;;;;;;2.83;1.10;;;;;;;20.52;51.38;101495.41;3568480;40;20158;-64
2022/07/01 08:19:35;;;;;;;2.00;1.00;;;;;;;20.72;51.40;101506.31;3568489;40;20405;-64
2022/07/01 08:22:01;;;;;;;4.22;1.30;;;;;;;20.80;50.60;101468.19;3569469;40;20179;-64
2022/07/01 08:24:27;;;;;;;5.25;1.67;;;;;;;20.96;48.73;101517.66;3568126;40;20069;-64
2022/07/01 08:26:53;;;;;;;4.07;1.60;;;;;;;20.96;47.04;101519.53;3571512;40;20302;-65
2022/07/01 08:29:18;;;;;;;2.58;1.00;;;;;;;20.98;46.64;101526.56;3570552;40;20057;-65
2022/07/01 08:31:44;;;;;;;2.65;1.30;;;;;;;21.00;47.77;101519.09;3568685;40;20065;-65
2022/07/01 08:34:10;;;;;;;2.45;1.15;;;;;;;21.09;47.74;101509.13;3571143;40;20048;-65
2022/07/01 08:36:35;;;;;;;3.28;1.30;;;;;;;21.11;47.36;101512.59;3571470;40;20238;-64
2022/07/01 08:39:02;;;;;;;2.10;1.00;;;;;;;21.24;47.79;101506.81;3571961;40;20072;-64
2022/07/01 08:41:28;;;;;;;1.95;1.17;;;;;;;21.16;46.81;101491.16;3570564;40;20083;-65
2022/07/01 08:43:54;;;;;;;3.13;1.25;;;;;;;21.37;47.54;101521.06;3571371;40;20056;-64
2022/07/01 08:46:22;;;;;;;2.53;1.00;;;;;;;21.43;47.04;101523.19;3564687;40;20092;-65
2022/07/01 08:48:49;;;;;;;4.22;1.10;;;;;;;21.56;46.63;101531.94;3571917;40;21272;-65
2022/07/01 08:51:15;;;;;;;3.97;1.10;;;;;;;21.66;46.09;101545.63;3568194;40;20051;-65
2022/07/01 08:53:41;;;;;;;6.40;1.90;;;;;;;21.79;45.46;101542.53;3567173;40;20056;-65
2022/07/01 08:58:51;;;;;;;5.13;1.20;;;;;;;22.00;45.42;101558.72;3570511;40;20059;-66
2022/07/01 09:01:23;;;;;;;4.80;1.60;;;;;;;22.18;44.50;101543.22;3569122;40;20068;-65
2022/07/01 09:03:53;;;;;;;3.50;1.05;;;;;;;22.20;44.50;101559.50;3573023;40;20060;-65
2022/07/01 09:06:23;;;;;;;3.92;1.50;;;;;;;22.51;44.86;101556.41;3571176;40;20045;-65
2022/07/01 09:08:50;;;;;;;4.75;1.75;;;;;;;22.36;45.62;101562.44;3565884;40;20143;-65
2022/07/01 09:11:22;;;;;;;6.47;1.65;;;;;;;22.52;45.30;101558.13;3565823;40;20067;-64
2022/07/01 09:14:11;;;;;;;5.53;1.50;;;;;;;22.66;44.65;101554.88;3570476;40;20107;-65
2022/07/01 09:16:48;;;;;;;3.05;1.73;;;;;;;22.46;44.73;101526.75;3572356;40;20063;-65
2022/07/01 09:19:20;;;;;;;2.28;1.50;;;;;;;22.62;44.58;101553.47;3571402;40;20065;-65
2022/07/01 09:21:56;;;;;;;3.63;1.27;;;;;;;22.33;44.41;101554.53;3566985;40;20056;-64
2022/07/01 09:24:23;;;;;;;3.05;1.00;;;;;;;22.32;44.36;101547.31;3566983;40;20084;-65
2022/07/01 09:27:06;;;;;;;4.13;1.30;;;;;;;22.57;44.29;101556.66;3567714;40;20061;-64
2022/07/01 09:29:35;;;;;;;5.25;1.30;;;;;;;22.74;41.43;101546.75;3569426;40;20056;-64
2022/07/01 09:32:05;;;;;;;3.42;1.10;;;;;;;22.78;42.20;101563.72;3569744;40;20488;-65
2022/07/01 09:34:41;;;;;;;3.92;1.08;;;;;;;22.93;42.63;101557.56;3566926;40;20049;-65
2022/07/01 09:37:07;;;;;;;3.13;1.30;;;;;;;22.99;41.08;101546.97;3569223;40;20052;-65
2022/07/01 09:39:43;;;;;;;3.05;1.25;;;;;;;23.04;42.68;101556.44;3570299;40;20394;-64
2022/07/01 09:42:09;;;;;;;2.15;1.20;;;;;;;23.35;43.59;101562.38;3569444;40;20068;-65
2022/07/01 09:44:35;;;;;;;3.40;1.30;;;;;;;23.69;42.38;101563.44;3571378;40;20048;-64
2022/07/01 09:47:01;;;;;;;4.82;1.50;;;;;;;23.39;40.71;101555.53;3571779;40;20079;-64
2022/07/01 09:49:27;;;;;;;2.80;1.30;;;;;;;23.51;40.25;101558.00;3568662;40;20053;-65
2022/07/01 09:51:53;;;;;;;5.65;1.10;;;;;;;23.48;40.20;101563.81;3570999;40;20100;-65
2022/07/01 09:54:20;;;;;;;3.83;1.20;;;;;;;23.19;40.33;101523.84;3568630;40;20481;-65
2022/07/01 09:56:46;;;;;;;1.63;1.20;;;;;;;22.96;40.95;101566.47;3570700;40;20052;-64
2022/07/01 09:59:12;;;;;;;4.57;1.30;;;;;;;22.73;42.82;101580.63;3567655;40;20048;-64
2022/07/01 10:01:39;;;;;;;2.03;1.30;;;;;;;22.52;43.27;101531.63;3569576;40;20055;-65
2022/07/01 10:04:09;;;;;;;2.58;1.33;;;;;;;22.84;42.24;101563.97;3569687;40;20052;-64
2022/07/01 10:07:18;;;;;;;3.47;1.25;;;;;;;22.87;42.14;101568.28;3571091;40;20061;-65
2022/07/01 10:10:25;;;;;;;4.35;1.60;;;;;;;22.95;41.44;101571.09;3567629;40;20304;-64
2022/07/01 10:12:55;;;;;;;4.13;1.48;;;;;;;22.42;42.29;101563.69;3568804;40;20465;-65
2022/07/01 10:15:22;;;;;;;3.55;1.13;;;;;;;22.55;43.68;101582.50;3565205;40;20603;-65
2022/07/01 10:17:52;;;;;;;2.70;0.90;;;;;;;22.93;42.10;101579.50;3569714;40;20060;-66
2022/07/01 10:20:25;;;;;;;6.38;1.13;;;;;;;23.19;41.50;101583.31;3569265;40;20075;-65
2022/07/01 10:23:04;;;;;;;2.93;1.00;;;;;;;23.43;42.09;101583.50;3570865;40;20056;-65
2022/07/01 10:25:41;;;;;;;3.38;1.10;;;;;;;23.46;40.84;101601.53;3560713;40;20045;-65
2022/07/01 10:28:22;;;;;;;1.90;0.60;;;;;;;23.03;39.38;101595.88;3570419;40;20099;-64
2022/07/01 10:30:59;;;;;;;2.88;1.05;;;;;;;23.24;41.86;101602.91;3566660;40;20061;-65
2022/07/01 10:33:53;;;;;;;2.85;1.15;;;;;;;23.64;42.12;101610.59;3567410;40;20049;-64
2022/07/01 10:36:31;;;;;;;2.47;0.90;;;;;;;23.85;40.64;101602.88;3567760;40;20088;-65
2022/07/01 10:39:03;;;;;;;2.65;1.08;;;;;;;24.09;40.83;101609.50;3566744;40;20065;-65
2022/07/01 10:41:31;;;;;;;3.35;1.10;;;;;;;23.94;40.73;101602.91;3573381;40;20375;-66
2022/07/01 10:43:58;;;;;;;3.63;0.98;;;;;;;24.19;40.79;101599.25;3565531;40;20065;-65
2022/07/01 10:47:05;;;;;;;3.97;1.13;;;;;;;24.27;39.04;101601.19;3568021;40;20088;-65
2022/07/01 10:49:36;;;;;;;2.50;1.10;;;;;;;24.22;40.31;101596.16;3568560;40;20047;-65
2022/07/01 10:52:15;;;;;;;3.30;0.95;;;;;;;24.43;40.57;101590.28;3566443;40;20296;-65
2022/07/01 10:54:42;;;;;;;2.60;0.85;;;;;;;24.66;38.98;101595.13;3565317;40;20052;-65
2022/07/01 10:57:20;;;;;;;3.38;1.35;;;;;;;24.24;38.07;101590.53;3565682;40;20053;-64
2022/07/01 11:00:00;;;;;;;3.85;0.90;;;;;;;24.06;38.85;101593.34;3572507;40;20044;-66
2022/07/01 11:02:38;;;;;;;2.67;1.08;;;;;;;23.91;39.08;101587.59;3566173;40;20053;-65
2022/07/01 11:05:09;;;;;;;1.98;0.98;;;;;;;23.97;39.51;101594.31;3570870;40;20388;-66
2022/07/01 11:07:42;;;;;;;2.70;0.88;;;;;;;24.19;38.62;101590.16;3566763;40;20052;-65
2022/07/01 11:10:10;;;;;;;2.38;0.90;;;;;;;24.35;38.78;101586.59;3565374;40;20049;-65
2022/07/01 11:12:36;;;;;;;2.22;0.80;;;;;;;24.24;40.14;101579.53;3566235;40;20097;-66
2022/07/01 11:15:07;;;;;;;2.42;0.90;;;;;;;24.30;38.94;101579.72;3566271;40;20375;-66
2022/07/01 11:17:34;;;;;;;5.25;1.10;;;;;;;23.97;39.09;101578.72;3570842;40;20127;-66
2022/07/01 11:20:02;;;;;;;3.65;1.20;;;;;;;24.11;39.11;101566.25;3569839;40;20383;-65
2022/07/01 11:22:37;;;;;;;3.42;0.93;;;;;;;24.58;40.39;101568.50;3569645;40;20053;-65
2022/07/01 11:25:17;;;;;;;4.80;0.98;;;;;;;24.78;39.16;101572.66;3570192;40;20107;-66
2022/07/01 11:27:48;;;;;;;4.28;1.48;;;;;;;24.69;38.68;101573.66;3566406;40;20459;-65
2022/07/01 11:30:15;;;;;;;2.00;0.95;;;;;;;24.93;38.08;101559.09;3566411;40;20431;-66
2022/07/01 11:32:50;;;;;;;4.03;1.10;;;;;;;24.85;38.92;101577.47;3569186;40;20048;-66
2022/07/01 11:41:02;;;;;;;2.25;1.00;;;;;;;25.33;36.61;101565.63;3571166;40;20403;-66